sensor_id;sensor_type;location;lat;lon;timestamp;P1;durP1;ratioP1;P2;durP2;ratioP2
75854;SDS011;64502;59.976;30.316;2024-03-17T00:01:39;12.32;;;5.82;;
75854;SDS011;64502;59.976;30.316;2024-03-17T00:04:07;12.05;;;5.97;;
75854;SDS011;64502;59.976;30.316;2024-03-17T00:06:33;11.38;;;6.57;;
75854;SDS011;64502;59.976;30.316;2024-03-17T00:08:59;13.10;;;7.22;;
75854;SDS011;64502;59.976;30.316;2024-03-17T00:11:28;13.77;;;6.20;;
75854;SDS011;64502;59.976;30.316;2024-03-17T00:13:53;12.77;;;6.00;;
75854;SDS011;64502;59.976;30.316;2024-03-17T00:16:19;11.82;;;5.30;;
75854;SDS011;64502;59.976;30.316;2024-03-17T00:18:45;14.93;;;6.15;;
75854;SDS011;64502;59.976;30.316;2024-03-17T00:21:13;14.13;;;7.28;;
75854;SDS011;64502;59.976;30.316;2024-03-17T00:23:40;11.80;;;6.22;;
75854;SDS011;64502;59.976;30.316;2024-03-17T00:26:05;12.07;;;6.10;;
75854;SDS011;64502;59.976;30.316;2024-03-17T00:31:16;10.38;;;6.15;;
75854;SDS011;64502;59.976;30.316;2024-03-17T00:33:42;15.23;;;6.75;;
75854;SDS011;64502;59.976;30.316;2024-03-17T00:36:07;9.95;;;5.75;;
75854;SDS011;64502;59.976;30.316;2024-03-17T00:38:33;15.25;;;7.03;;
75854;SDS011;64502;59.976;30.316;2024-03-17T00:40:59;12.82;;;6.65;;
75854;SDS011;64502;59.976;30.316;2024-03-17T00:43:25;13.30;;;6.55;;
75854;SDS011;64502;59.976;30.316;2024-03-17T00:45:53;12.82;;;7.47;;
75854;SDS011;64502;59.976;30.316;2024-03-17T00:48:19;12.80;;;7.15;;
75854;SDS011;64502;59.976;30.316;2024-03-17T00:50:45;13.15;;;6.60;;
75854;SDS011;64502;59.976;30.316;2024-03-17T00:53:11;15.50;;;6.88;;
75854;SDS011;64502;59.976;30.316;2024-03-17T00:55:55;15.05;;;7.32;;
75854;SDS011;64502;59.976;30.316;2024-03-17T00:58:23;10.98;;;6.60;;
75854;SDS011;64502;59.976;30.316;2024-03-17T01:00:49;11.52;;;6.78;;
75854;SDS011;64502;59.976;30.316;2024-03-17T01:03:18;12.68;;;6.55;;
75854;SDS011;64502;59.976;30.316;2024-03-17T01:05:44;14.57;;;7.30;;
75854;SDS011;64502;59.976;30.316;2024-03-17T01:08:12;11.10;;;6.70;;
75854;SDS011;64502;59.976;30.316;2024-03-17T01:10:38;12.68;;;6.40;;
75854;SDS011;64502;59.976;30.316;2024-03-17T01:13:06;11.55;;;6.63;;
75854;SDS011;64502;59.976;30.316;2024-03-17T01:15:32;15.32;;;8.43;;
75854;SDS011;64502;59.976;30.316;2024-03-17T01:17:58;13.38;;;7.10;;
75854;SDS011;64502;59.976;30.316;2024-03-17T01:20:25;14.88;;;6.75;;
75854;SDS011;64502;59.976;30.316;2024-03-17T01:22:51;11.52;;;6.60;;
75854;SDS011;64502;59.976;30.316;2024-03-17T01:25:16;13.02;;;6.93;;
75854;SDS011;64502;59.976;30.316;2024-03-17T01:27:42;12.02;;;6.15;;
75854;SDS011;64502;59.976;30.316;2024-03-17T01:30:09;11.25;;;6.57;;
75854;SDS011;64502;59.976;30.316;2024-03-17T01:32:35;13.93;;;6.60;;
75854;SDS011;64502;59.976;30.316;2024-03-17T01:35:01;11.95;;;6.00;;
75854;SDS011;64502;59.976;30.316;2024-03-17T01:37:26;10.70;;;6.15;;
75854;SDS011;64502;59.976;30.316;2024-03-17T01:39:52;11.73;;;6.32;;
75854;SDS011;64502;59.976;30.316;2024-03-17T01:42:17;10.10;;;6.00;;
75854;SDS011;64502;59.976;30.316;2024-03-17T01:44:43;9.95;;;5.68;;
75854;SDS011;64502;59.976;30.316;2024-03-17T01:47:09;12.95;;;5.55;;
75854;SDS011;64502;59.976;30.316;2024-03-17T01:49:35;10.65;;;5.32;;
75854;SDS011;64502;59.976;30.316;2024-03-17T01:52:01;9.63;;;4.97;;
75854;SDS011;64502;59.976;30.316;2024-03-17T01:54:28;7.93;;;4.90;;
75854;SDS011;64502;59.976;30.316;2024-03-17T01:56:54;9.13;;;5.07;;
75854;SDS011;64502;59.976;30.316;2024-03-17T01:59:20;9.10;;;5.57;;
75854;SDS011;64502;59.976;30.316;2024-03-17T02:01:46;11.57;;;5.72;;
75854;SDS011;64502;59.976;30.316;2024-03-17T02:04:11;11.10;;;5.32;;
75854;SDS011;64502;59.976;30.316;2024-03-17T02:06:37;9.15;;;4.70;;
75854;SDS011;64502;59.976;30.316;2024-03-17T02:09:04;10.88;;;5.00;;
75854;SDS011;64502;59.976;30.316;2024-03-17T02:11:31;11.25;;;5.43;;
75854;SDS011;64502;59.976;30.316;2024-03-17T02:13:58;10.15;;;5.63;;
75854;SDS011;64502;59.976;30.316;2024-03-17T02:16:25;11.65;;;5.30;;
75854;SDS011;64502;59.976;30.316;2024-03-17T02:18:55;8.85;;;5.22;;
75854;SDS011;64502;59.976;30.316;2024-03-17T02:21:21;10.15;;;5.65;;
75854;SDS011;64502;59.976;30.316;2024-03-17T02:23:48;9.35;;;4.85;;
75854;SDS011;64502;59.976;30.316;2024-03-17T02:26:14;7.65;;;4.47;;
75854;SDS011;64502;59.976;30.316;2024-03-17T02:28:43;11.52;;;5.75;;
75854;SDS011;64502;59.976;30.316;2024-03-17T02:31:10;9.07;;;4.97;;
75854;SDS011;64502;59.976;30.316;2024-03-17T02:33:37;10.45;;;5.13;;
75854;SDS011;64502;59.976;30.316;2024-03-17T02:36:03;7.40;;;4.53;;
75854;SDS011;64502;59.976;30.316;2024-03-17T02:38:32;8.38;;;4.70;;
75854;SDS011;64502;59.976;30.316;2024-03-17T02:41:17;10.20;;;4.65;;
75854;SDS011;64502;59.976;30.316;2024-03-17T02:43:43;7.25;;;3.70;;
75854;SDS011;64502;59.976;30.316;2024-03-17T02:46:11;9.52;;;4.70;;
75854;SDS011;64502;59.976;30.316;2024-03-17T02:48:38;8.23;;;4.05;;
75854;SDS011;64502;59.976;30.316;2024-03-17T02:51:10;9.35;;;4.20;;
75854;SDS011;64502;59.976;30.316;2024-03-17T02:53:37;8.35;;;4.15;;
75854;SDS011;64502;59.976;30.316;2024-03-17T02:56:04;8.88;;;4.88;;
75854;SDS011;64502;59.976;30.316;2024-03-17T02:58:48;8.60;;;4.30;;
75854;SDS011;64502;59.976;30.316;2024-03-17T03:01:16;7.85;;;4.25;;
75854;SDS011;64502;59.976;30.316;2024-03-17T03:03:43;6.75;;;3.85;;
75854;SDS011;64502;59.976;30.316;2024-03-17T03:06:08;8.23;;;4.78;;
75854;SDS011;64502;59.976;30.316;2024-03-17T03:08:35;8.55;;;4.13;;
75854;SDS011;64502;59.976;30.316;2024-03-17T03:11:03;7.93;;;3.97;;
75854;SDS011;64502;59.976;30.316;2024-03-17T03:13:29;6.35;;;3.85;;
75854;SDS011;64502;59.976;30.316;2024-03-17T03:15:55;6.75;;;4.20;;
75854;SDS011;64502;59.976;30.316;2024-03-17T03:18:20;6.88;;;4.05;;
75854;SDS011;64502;59.976;30.316;2024-03-17T03:20:52;8.23;;;4.30;;
75854;SDS011;64502;59.976;30.316;2024-03-17T03:23:18;8.00;;;4.15;;
75854;SDS011;64502;59.976;30.316;2024-03-17T03:25:44;8.60;;;4.50;;
75854;SDS011;64502;59.976;30.316;2024-03-17T03:28:11;8.90;;;4.38;;
75854;SDS011;64502;59.976;30.316;2024-03-17T03:30:37;6.90;;;4.28;;
75854;SDS011;64502;59.976;30.316;2024-03-17T03:33:03;10.10;;;4.70;;
75854;SDS011;64502;59.976;30.316;2024-03-17T03:35:30;8.07;;;4.47;;
75854;SDS011;64502;59.976;30.316;2024-03-17T03:37:55;8.65;;;4.57;;
75854;SDS011;64502;59.976;30.316;2024-03-17T03:40:21;8.90;;;4.20;;
75854;SDS011;64502;59.976;30.316;2024-03-17T03:42:47;8.63;;;3.78;;
75854;SDS011;64502;59.976;30.316;2024-03-17T03:45:13;8.30;;;4.20;;
75854;SDS011;64502;59.976;30.316;2024-03-17T03:47:42;7.70;;;4.32;;
75854;SDS011;64502;59.976;30.316;2024-03-17T03:50:08;9.80;;;4.80;;
75854;SDS011;64502;59.976;30.316;2024-03-17T03:52:35;8.43;;;4.47;;
75854;SDS011;64502;59.976;30.316;2024-03-17T03:55:06;8.30;;;4.28;;
75854;SDS011;64502;59.976;30.316;2024-03-17T03:57:33;9.95;;;3.75;;
75854;SDS011;64502;59.976;30.316;2024-03-17T04:02:53;7.95;;;4.38;;
75854;SDS011;64502;59.976;30.316;2024-03-17T04:05:19;6.75;;;4.05;;
75854;SDS011;64502;59.976;30.316;2024-03-17T04:07:45;6.85;;;4.05;;
75854;SDS011;64502;59.976;30.316;2024-03-17T04:10:12;7.43;;;3.80;;
75854;SDS011;64502;59.976;30.316;2024-03-17T04:12:38;7.82;;;4.10;;
75854;SDS011;64502;59.976;30.316;2024-03-17T04:15:05;6.80;;;4.00;;
75854;SDS011;64502;59.976;30.316;2024-03-17T04:17:31;9.15;;;4.90;;
75854;SDS011;64502;59.976;30.316;2024-03-17T04:19:57;7.93;;;4.50;;
75854;SDS011;64502;59.976;30.316;2024-03-17T04:22:24;8.27;;;4.60;;
75854;SDS011;64502;59.976;30.316;2024-03-17T04:24:49;6.63;;;4.15;;
75854;SDS011;64502;59.976;30.316;2024-03-17T04:27:19;9.20;;;4.60;;
75854;SDS011;64502;59.976;30.316;2024-03-17T04:29:49;8.85;;;4.93;;
75854;SDS011;64502;59.976;30.316;2024-03-17T04:32:19;10.02;;;5.18;;
75854;SDS011;64502;59.976;30.316;2024-03-17T04:34:45;9.27;;;4.75;;
75854;SDS011;64502;59.976;30.316;2024-03-17T04:37:10;9.63;;;4.80;;
75854;SDS011;64502;59.976;30.316;2024-03-17T04:39:37;8.23;;;4.38;;
75854;SDS011;64502;59.976;30.316;2024-03-17T04:42:04;10.60;;;5.40;;
75854;SDS011;64502;59.976;30.316;2024-03-17T04:44:31;7.82;;;4.70;;
75854;SDS011;64502;59.976;30.316;2024-03-17T04:46:56;9.85;;;5.47;;
75854;SDS011;64502;59.976;30.316;2024-03-17T04:49:22;11.07;;;5.30;;
75854;SDS011;64502;59.976;30.316;2024-03-17T04:51:48;11.77;;;5.55;;
75854;SDS011;64502;59.976;30.316;2024-03-17T04:56:58;10.40;;;5.00;;
75854;SDS011;64502;59.976;30.316;2024-03-17T04:59:24;9.35;;;5.63;;
75854;SDS011;64502;59.976;30.316;2024-03-17T05:01:50;10.60;;;6.07;;
75854;SDS011;64502;59.976;30.316;2024-03-17T05:04:15;9.73;;;5.32;;
75854;SDS011;64502;59.976;30.316;2024-03-17T05:06:41;9.57;;;5.85;;
75854;SDS011;64502;59.976;30.316;2024-03-17T05:11:38;11.45;;;5.85;;
75854;SDS011;64502;59.976;30.316;2024-03-17T05:14:03;10.57;;;5.43;;
75854;SDS011;64502;59.976;30.316;2024-03-17T05:16:29;11.40;;;5.82;;
75854;SDS011;64502;59.976;30.316;2024-03-17T05:18:55;11.82;;;6.38;;
75854;SDS011;64502;59.976;30.316;2024-03-17T05:21:21;13.07;;;6.13;;
75854;SDS011;64502;59.976;30.316;2024-03-17T05:26:16;10.48;;;5.32;;
75854;SDS011;64502;59.976;30.316;2024-03-17T05:28:42;11.82;;;5.65;;
75854;SDS011;64502;59.976;30.316;2024-03-17T05:31:09;12.02;;;6.05;;
75854;SDS011;64502;59.976;30.316;2024-03-17T05:33:35;11.27;;;5.93;;
75854;SDS011;64502;59.976;30.316;2024-03-17T05:36:01;11.60;;;6.35;;
75854;SDS011;64502;59.976;30.316;2024-03-17T05:38:28;12.65;;;6.20;;
75854;SDS011;64502;59.976;30.316;2024-03-17T05:40:55;13.35;;;5.85;;
75854;SDS011;64502;59.976;30.316;2024-03-17T05:46:07;11.63;;;6.18;;
75854;SDS011;64502;59.976;30.316;2024-03-17T05:48:39;12.85;;;6.45;;
75854;SDS011;64502;59.976;30.316;2024-03-17T05:51:09;13.10;;;6.55;;
75854;SDS011;64502;59.976;30.316;2024-03-17T05:53:35;12.48;;;5.93;;
75854;SDS011;64502;59.976;30.316;2024-03-17T05:56:02;11.32;;;6.30;;
75854;SDS011;64502;59.976;30.316;2024-03-17T05:58:29;9.88;;;5.78;;
75854;SDS011;64502;59.976;30.316;2024-03-17T06:00:55;13.50;;;6.53;;
75854;SDS011;64502;59.976;30.316;2024-03-17T06:03:21;12.13;;;5.80;;
75854;SDS011;64502;59.976;30.316;2024-03-17T06:05:47;13.23;;;6.47;;
75854;SDS011;64502;59.976;30.316;2024-03-17T06:08:13;11.23;;;6.35;;
75854;SDS011;64502;59.976;30.316;2024-03-17T06:10:58;14.77;;;6.03;;
75854;SDS011;64502;59.976;30.316;2024-03-17T06:13:25;11.25;;;5.97;;
75854;SDS011;64502;59.976;30.316;2024-03-17T06:15:51;16.88;;;6.82;;
75854;SDS011;64502;59.976;30.316;2024-03-17T06:18:17;13.30;;;6.85;;
75854;SDS011;64502;59.976;30.316;2024-03-17T06:20:43;16.08;;;6.95;;
75854;SDS011;64502;59.976;30.316;2024-03-17T06:23:11;10.13;;;5.45;;
75854;SDS011;64502;59.976;30.316;2024-03-17T06:25:40;13.82;;;7.50;;
75854;SDS011;64502;59.976;30.316;2024-03-17T06:28:07;12.30;;;6.60;;
75854;SDS011;64502;59.976;30.316;2024-03-17T06:30:42;13.68;;;7.13;;
75854;SDS011;64502;59.976;30.316;2024-03-17T06:33:15;14.77;;;7.15;;
75854;SDS011;64502;59.976;30.316;2024-03-17T06:35:45;13.57;;;6.80;;
75854;SDS011;64502;59.976;30.316;2024-03-17T06:38:14;8.77;;;5.40;;
75854;SDS011;64502;59.976;30.316;2024-03-17T06:40:40;10.80;;;5.78;;
75854;SDS011;64502;59.976;30.316;2024-03-17T06:43:06;5.35;;;3.40;;
75854;SDS011;64502;59.976;30.316;2024-03-17T06:45:33;4.20;;;2.28;;
75854;SDS011;64502;59.976;30.316;2024-03-17T06:47:59;3.53;;;1.98;;
75854;SDS011;64502;59.976;30.316;2024-03-17T06:50:24;4.38;;;1.83;;
75854;SDS011;64502;59.976;30.316;2024-03-17T06:52:50;3.17;;;1.42;;
75854;SDS011;64502;59.976;30.316;2024-03-17T06:55:17;4.32;;;1.65;;
75854;SDS011;64502;59.976;30.316;2024-03-17T06:57:43;2.05;;;0.85;;
75854;SDS011;64502;59.976;30.316;2024-03-17T07:00:09;1.70;;;0.57;;
75854;SDS011;64502;59.976;30.316;2024-03-17T07:05:06;2.53;;;0.70;;
75854;SDS011;64502;59.976;30.316;2024-03-17T07:07:32;3.75;;;0.63;;
75854;SDS011;64502;59.976;30.316;2024-03-17T07:09:58;1.52;;;0.52;;
75854;SDS011;64502;59.976;30.316;2024-03-17T07:12:23;1.30;;;0.57;;
75854;SDS011;64502;59.976;30.316;2024-03-17T07:14:52;2.55;;;0.82;;
75854;SDS011;64502;59.976;30.316;2024-03-17T07:17:17;1.77;;;0.70;;
75854;SDS011;64502;59.976;30.316;2024-03-17T07:19:43;1.65;;;0.43;;
75854;SDS011;64502;59.976;30.316;2024-03-17T07:22:08;1.50;;;0.50;;
75854;SDS011;64502;59.976;30.316;2024-03-17T07:24:34;1.38;;;0.38;;
75854;SDS011;64502;59.976;30.316;2024-03-17T07:27:00;1.73;;;0.40;;
75854;SDS011;64502;59.976;30.316;2024-03-17T07:29:25;3.45;;;0.65;;
75854;SDS011;64502;59.976;30.316;2024-03-17T07:31:51;1.08;;;0.30;;
75854;SDS011;64502;59.976;30.316;2024-03-17T07:34:16;2.08;;;0.55;;
75854;SDS011;64502;59.976;30.316;2024-03-17T07:39:45;1.70;;;0.55;;
75854;SDS011;64502;59.976;30.316;2024-03-17T07:42:14;1.50;;;0.25;;
75854;SDS011;64502;59.976;30.316;2024-03-17T07:44:43;1.35;;;0.45;;
75854;SDS011;64502;59.976;30.316;2024-03-17T07:47:09;1.40;;;0.57;;
75854;SDS011;64502;59.976;30.316;2024-03-17T07:49:35;1.67;;;0.40;;
75854;SDS011;64502;59.976;30.316;2024-03-17T07:52:00;1.25;;;0.38;;
75854;SDS011;64502;59.976;30.316;2024-03-17T07:54:27;2.10;;;0.65;;
75854;SDS011;64502;59.976;30.316;2024-03-17T07:56:53;1.50;;;0.45;;
75854;SDS011;64502;59.976;30.316;2024-03-17T07:59:20;1.67;;;0.60;;
75854;SDS011;64502;59.976;30.316;2024-03-17T08:01:45;1.25;;;0.43;;
75854;SDS011;64502;59.976;30.316;2024-03-17T08:04:11;2.28;;;0.52;;
75854;SDS011;64502;59.976;30.316;2024-03-17T08:06:40;1.77;;;0.82;;
75854;SDS011;64502;59.976;30.316;2024-03-17T08:09:06;2.13;;;0.68;;
75854;SDS011;64502;59.976;30.316;2024-03-17T08:11:33;1.80;;;0.77;;
75854;SDS011;64502;59.976;30.316;2024-03-17T08:14:00;1.45;;;0.50;;
75854;SDS011;64502;59.976;30.316;2024-03-17T08:16:26;1.42;;;0.60;;
75854;SDS011;64502;59.976;30.316;2024-03-17T08:18:53;1.85;;;0.88;;
75854;SDS011;64502;59.976;30.316;2024-03-17T08:21:18;1.73;;;0.50;;
75854;SDS011;64502;59.976;30.316;2024-03-17T08:23:44;1.92;;;0.50;;
75854;SDS011;64502;59.976;30.316;2024-03-17T08:26:12;1.40;;;0.75;;
75854;SDS011;64502;59.976;30.316;2024-03-17T08:28:38;1.48;;;0.50;;
75854;SDS011;64502;59.976;30.316;2024-03-17T08:31:04;1.73;;;0.50;;
75854;SDS011;64502;59.976;30.316;2024-03-17T08:33:30;1.23;;;0.30;;
75854;SDS011;64502;59.976;30.316;2024-03-17T08:36:06;4.63;;;0.60;;
75854;SDS011;64502;59.976;30.316;2024-03-17T08:38:33;0.90;;;0.20;;
75854;SDS011;64502;59.976;30.316;2024-03-17T08:41:03;1.55;;;0.35;;
75854;SDS011;64502;59.976;30.316;2024-03-17T08:43:31;2.13;;;0.40;;
75854;SDS011;64502;59.976;30.316;2024-03-17T08:45:57;1.73;;;0.30;;
75854;SDS011;64502;59.976;30.316;2024-03-17T08:48:26;1.25;;;0.25;;
75854;SDS011;64502;59.976;30.316;2024-03-17T08:50:52;1.70;;;0.43;;
75854;SDS011;64502;59.976;30.316;2024-03-17T08:53:19;1.20;;;0.30;;
75854;SDS011;64502;59.976;30.316;2024-03-17T08:55:45;1.08;;;0.20;;
75854;SDS011;64502;59.976;30.316;2024-03-17T08:58:11;1.52;;;0.17;;
75854;SDS011;64502;59.976;30.316;2024-03-17T09:00:55;0.65;;;0.15;;
75854;SDS011;64502;59.976;30.316;2024-03-17T09:03:21;0.98;;;0.10;;
75854;SDS011;64502;59.976;30.316;2024-03-17T09:05:47;0.88;;;0.10;;
75854;SDS011;64502;59.976;30.316;2024-03-17T09:08:17;0.82;;;0.20;;
75854;SDS011;64502;59.976;30.316;2024-03-17T09:10:45;1.25;;;0.30;;
75854;SDS011;64502;59.976;30.316;2024-03-17T09:13:18;1.80;;;0.20;;
75854;SDS011;64502;59.976;30.316;2024-03-17T09:15:55;1.98;;;0.47;;
75854;SDS011;64502;59.976;30.316;2024-03-17T09:21:09;2.13;;;0.10;;
75854;SDS011;64502;59.976;30.316;2024-03-17T09:23:35;0.82;;;0.10;;
75854;SDS011;64502;59.976;30.316;2024-03-17T09:26:07;2.60;;;0.10;;
75854;SDS011;64502;59.976;30.316;2024-03-17T09:28:33;0.45;;;0.00;;
75854;SDS011;64502;59.976;30.316;2024-03-17T09:31:00;0.60;;;0.13;;
75854;SDS011;64502;59.976;30.316;2024-03-17T09:33:26;0.73;;;0.08;;
75854;SDS011;64502;59.976;30.316;2024-03-17T09:35:53;4.00;;;1.15;;
75854;SDS011;64502;59.976;30.316;2024-03-17T09:38:20;1.13;;;0.28;;
75854;SDS011;64502;59.976;30.316;2024-03-17T09:40:49;0.52;;;0.10;;
75854;SDS011;64502;59.976;30.316;2024-03-17T09:43:18;0.75;;;0.00;;
75854;SDS011;64502;59.976;30.316;2024-03-17T09:45:47;0.75;;;0.10;;
75854;SDS011;64502;59.976;30.316;2024-03-17T09:48:14;1.17;;;0.40;;
75854;SDS011;64502;59.976;30.316;2024-03-17T09:50:44;1.08;;;0.20;;
75854;SDS011;64502;59.976;30.316;2024-03-17T09:53:27;1.13;;;0.15;;
75854;SDS011;64502;59.976;30.316;2024-03-17T09:55:57;0.50;;;0.00;;
75854;SDS011;64502;59.976;30.316;2024-03-17T09:58:36;1.00;;;0.10;;
75854;SDS011;64502;59.976;30.316;2024-03-17T10:01:02;1.35;;;0.43;;
75854;SDS011;64502;59.976;30.316;2024-03-17T10:03:44;1.40;;;0.10;;
75854;SDS011;64502;59.976;30.316;2024-03-17T10:06:17;0.60;;;0.30;;
75854;SDS011;64502;59.976;30.316;2024-03-17T10:09:01;0.60;;;0.10;;
75854;SDS011;64502;59.976;30.316;2024-03-17T10:11:33;0.63;;;0.00;;
75854;SDS011;64502;59.976;30.316;2024-03-17T10:14:03;0.77;;;0.28;;
75854;SDS011;64502;59.976;30.316;2024-03-17T10:16:30;0.68;;;0.10;;
75854;SDS011;64502;59.976;30.316;2024-03-17T10:21:32;0.52;;;0.00;;
75854;SDS011;64502;59.976;30.316;2024-03-17T10:31:52;0.22;;;0.00;;
75854;SDS011;64502;59.976;30.316;2024-03-17T10:34:22;0.20;;;0.00;;
75854;SDS011;64502;59.976;30.316;2024-03-17T10:36:50;1.45;;;0.20;;
75854;SDS011;64502;59.976;30.316;2024-03-17T10:39:22;0.60;;;0.10;;
75854;SDS011;64502;59.976;30.316;2024-03-17T10:41:56;0.95;;;0.25;;
75854;SDS011;64502;59.976;30.316;2024-03-17T10:44:25;0.82;;;0.10;;
75854;SDS011;64502;59.976;30.316;2024-03-17T10:46:53;1.25;;;0.10;;
75854;SDS011;64502;59.976;30.316;2024-03-17T10:49:20;0.40;;;0.10;;
75854;SDS011;64502;59.976;30.316;2024-03-17T10:51:49;0.60;;;0.10;;
75854;SDS011;64502;59.976;30.316;2024-03-17T10:54:23;0.70;;;0.00;;
75854;SDS011;64502;59.976;30.316;2024-03-17T10:56:57;1.50;;;0.28;;
75854;SDS011;64502;59.976;30.316;2024-03-17T10:59:40;0.65;;;0.20;;
75854;SDS011;64502;59.976;30.316;2024-03-17T11:02:25;0.73;;;0.10;;
75854;SDS011;64502;59.976;30.316;2024-03-17T11:05:02;0.77;;;0.30;;
75854;SDS011;64502;59.976;30.316;2024-03-17T11:07:29;1.08;;;0.10;;
75854;SDS011;64502;59.976;30.316;2024-03-17T11:13:22;0.35;;;0.00;;
75854;SDS011;64502;59.976;30.316;2024-03-17T11:15:55;0.98;;;0.10;;
75854;SDS011;64502;59.976;30.316;2024-03-17T11:21:01;1.23;;;0.00;;
75854;SDS011;64502;59.976;30.316;2024-03-17T11:23:32;0.50;;;0.00;;
75854;SDS011;64502;59.976;30.316;2024-03-17T11:28:51;0.75;;;0.00;;
75854;SDS011;64502;59.976;30.316;2024-03-17T11:34:00;0.63;;;0.08;;
75854;SDS011;64502;59.976;30.316;2024-03-17T11:39:06;0.68;;;0.00;;
75854;SDS011;64502;59.976;30.316;2024-03-17T11:41:52;0.52;;;0.00;;
75854;SDS011;64502;59.976;30.316;2024-03-17T11:49:25;2.58;;;0.50;;
75854;SDS011;64502;59.976;30.316;2024-03-17T11:51:51;0.82;;;0.20;;
75854;SDS011;64502;59.976;30.316;2024-03-17T11:54:21;0.63;;;0.00;;
75854;SDS011;64502;59.976;30.316;2024-03-17T11:56:52;0.70;;;0.00;;
75854;SDS011;64502;59.976;30.316;2024-03-17T11:59:19;0.32;;;0.00;;
75854;SDS011;64502;59.976;30.316;2024-03-17T12:01:46;0.82;;;0.20;;
75854;SDS011;64502;59.976;30.316;2024-03-17T12:04:13;0.40;;;0.00;;
75854;SDS011;64502;59.976;30.316;2024-03-17T12:06:43;0.75;;;0.10;;
75854;SDS011;64502;59.976;30.316;2024-03-17T12:09:20;2.30;;;0.10;;
75854;SDS011;64502;59.976;30.316;2024-03-17T12:11:57;0.75;;;0.00;;
75854;SDS011;64502;59.976;30.316;2024-03-17T12:14:24;0.88;;;0.00;;
75854;SDS011;64502;59.976;30.316;2024-03-17T12:16:54;1.33;;;0.15;;
75854;SDS011;64502;59.976;30.316;2024-03-17T12:19:21;0.70;;;0.00;;
75854;SDS011;64502;59.976;30.316;2024-03-17T12:21:49;0.15;;;0.00;;
75854;SDS011;64502;59.976;30.316;2024-03-17T12:27:05;0.77;;;0.10;;
75854;SDS011;64502;59.976;30.316;2024-03-17T12:32:11;0.82;;;0.10;;
75854;SDS011;64502;59.976;30.316;2024-03-17T12:34:41;0.60;;;0.00;;
75854;SDS011;64502;59.976;30.316;2024-03-17T12:37:08;0.70;;;0.22;;
75854;SDS011;64502;59.976;30.316;2024-03-17T12:39:34;0.20;;;0.00;;
75854;SDS011;64502;59.976;30.316;2024-03-17T12:44:35;0.80;;;0.10;;
75854;SDS011;64502;59.976;30.316;2024-03-17T12:47:20;0.40;;;0.00;;
75854;SDS011;64502;59.976;30.316;2024-03-17T12:49:53;0.90;;;0.10;;
75854;SDS011;64502;59.976;30.316;2024-03-17T12:57:52;2.10;;;0.08;;
75854;SDS011;64502;59.976;30.316;2024-03-17T13:00:45;0.60;;;0.00;;
75854;SDS011;64502;59.976;30.316;2024-03-17T13:03:21;0.40;;;0.00;;
75854;SDS011;64502;59.976;30.316;2024-03-17T13:05:49;0.82;;;0.00;;
75854;SDS011;64502;59.976;30.316;2024-03-17T13:08:15;0.63;;;0.00;;
75854;SDS011;64502;59.976;30.316;2024-03-17T13:10:41;1.17;;;0.00;;
75854;SDS011;64502;59.976;30.316;2024-03-17T13:13:09;0.98;;;0.00;;
75854;SDS011;64502;59.976;30.316;2024-03-17T13:15:37;1.85;;;0.10;;
75854;SDS011;64502;59.976;30.316;2024-03-17T13:18:03;0.60;;;0.05;;
75854;SDS011;64502;59.976;30.316;2024-03-17T13:20:33;0.80;;;0.10;;
75854;SDS011;64502;59.976;30.316;2024-03-17T13:23:00;2.22;;;0.10;;
75854;SDS011;64502;59.976;30.316;2024-03-17T13:25:29;0.50;;;0.00;;
75854;SDS011;64502;59.976;30.316;2024-03-17T13:28:00;0.70;;;0.00;;
75854;SDS011;64502;59.976;30.316;2024-03-17T13:30:26;1.30;;;0.00;;
75854;SDS011;64502;59.976;30.316;2024-03-17T13:32:54;0.85;;;0.10;;
75854;SDS011;64502;59.976;30.316;2024-03-17T13:35:29;1.30;;;0.10;;
75854;SDS011;64502;59.976;30.316;2024-03-17T13:37:55;0.98;;;0.10;;
75854;SDS011;64502;59.976;30.316;2024-03-17T13:40:26;0.40;;;0.00;;
75854;SDS011;64502;59.976;30.316;2024-03-17T13:42:52;1.15;;;0.00;;
75854;SDS011;64502;59.976;30.316;2024-03-17T13:45:19;0.60;;;0.10;;
75854;SDS011;64502;59.976;30.316;2024-03-17T13:47:51;1.13;;;0.10;;
75854;SDS011;64502;59.976;30.316;2024-03-17T13:50:20;0.50;;;0.00;;
75854;SDS011;64502;59.976;30.316;2024-03-17T13:52:45;1.85;;;0.20;;
75854;SDS011;64502;59.976;30.316;2024-03-17T13:55:13;0.80;;;0.10;;
75854;SDS011;64502;59.976;30.316;2024-03-17T13:57:44;0.57;;;0.00;;
75854;SDS011;64502;59.976;30.316;2024-03-17T14:00:29;0.90;;;0.10;;
75854;SDS011;64502;59.976;30.316;2024-03-17T14:02:56;0.50;;;0.00;;
75854;SDS011;64502;59.976;30.316;2024-03-17T14:05:23;0.45;;;0.00;;
75854;SDS011;64502;59.976;30.316;2024-03-17T14:07:51;0.25;;;0.00;;
75854;SDS011;64502;59.976;30.316;2024-03-17T14:10:18;0.50;;;0.00;;
75854;SDS011;64502;59.976;30.316;2024-03-17T14:12:44;2.72;;;0.10;;
75854;SDS011;64502;59.976;30.316;2024-03-17T14:15:11;0.70;;;0.10;;
75854;SDS011;64502;59.976;30.316;2024-03-17T14:20:05;0.77;;;0.20;;
75854;SDS011;64502;59.976;30.316;2024-03-17T14:22:34;1.35;;;0.10;;
75854;SDS011;64502;59.976;30.316;2024-03-17T14:25:00;0.80;;;0.00;;
75854;SDS011;64502;59.976;30.316;2024-03-17T14:27:26;1.30;;;0.10;;
75854;SDS011;64502;59.976;30.316;2024-03-17T14:29:52;0.77;;;0.10;;
75854;SDS011;64502;59.976;30.316;2024-03-17T14:32:18;0.40;;;0.00;;
75854;SDS011;64502;59.976;30.316;2024-03-17T14:34:44;1.15;;;0.10;;
75854;SDS011;64502;59.976;30.316;2024-03-17T14:37:11;1.00;;;0.30;;
75854;SDS011;64502;59.976;30.316;2024-03-17T14:39:36;1.08;;;0.10;;
75854;SDS011;64502;59.976;30.316;2024-03-17T14:42:03;0.30;;;0.00;;
75854;SDS011;64502;59.976;30.316;2024-03-17T14:44:29;1.40;;;0.08;;
75854;SDS011;64502;59.976;30.316;2024-03-17T14:46:55;0.47;;;0.08;;
75854;SDS011;64502;59.976;30.316;2024-03-17T14:49:20;0.82;;;0.00;;
75854;SDS011;64502;59.976;30.316;2024-03-17T14:51:47;0.50;;;0.03;;
75854;SDS011;64502;59.976;30.316;2024-03-17T14:54:12;0.43;;;0.08;;
75854;SDS011;64502;59.976;30.316;2024-03-17T14:56:38;1.15;;;0.08;;
75854;SDS011;64502;59.976;30.316;2024-03-17T14:59:23;5.55;;;0.10;;
75854;SDS011;64502;59.976;30.316;2024-03-17T15:01:48;0.40;;;0.10;;
75854;SDS011;64502;59.976;30.316;2024-03-17T15:04:14;0.40;;;0.00;;
75854;SDS011;64502;59.976;30.316;2024-03-17T15:06:43;0.45;;;0.10;;
75854;SDS011;64502;59.976;30.316;2024-03-17T15:09:08;1.23;;;0.00;;
75854;SDS011;64502;59.976;30.316;2024-03-17T15:11:34;0.90;;;0.35;;
75854;SDS011;64502;59.976;30.316;2024-03-17T15:14:00;3.25;;;0.40;;
75854;SDS011;64502;59.976;30.316;2024-03-17T15:16:26;0.80;;;0.10;;
75854;SDS011;64502;59.976;30.316;2024-03-17T15:18:52;0.82;;;0.10;;
75854;SDS011;64502;59.976;30.316;2024-03-17T15:21:17;4.15;;;0.20;;
75854;SDS011;64502;59.976;30.316;2024-03-17T15:23:44;2.55;;;0.25;;
75854;SDS011;64502;59.976;30.316;2024-03-17T15:26:10;0.85;;;0.10;;
75854;SDS011;64502;59.976;30.316;2024-03-17T15:28:41;2.63;;;0.20;;
75854;SDS011;64502;59.976;30.316;2024-03-17T15:31:09;0.93;;;0.50;;
75854;SDS011;64502;59.976;30.316;2024-03-17T15:33:35;0.32;;;0.08;;
75854;SDS011;64502;59.976;30.316;2024-03-17T15:36:05;0.85;;;0.20;;
75854;SDS011;64502;59.976;30.316;2024-03-17T15:38:33;1.17;;;0.00;;
75854;SDS011;64502;59.976;30.316;2024-03-17T15:41:02;1.95;;;0.38;;
75854;SDS011;64502;59.976;30.316;2024-03-17T15:43:31;1.48;;;0.00;;
75854;SDS011;64502;59.976;30.316;2024-03-17T15:45:58;0.68;;;0.10;;